Time;durP1;ratioP1;P1;durP2;ratioP2;P2;SDS_P1;SDS_P2;PMS_P1;PMS_P2;Temp;Humidity;BMP_temperature;BMP_pressure;BME280_temperature;BME280_humidity;BME280_pressure;Samples;Min_cycle;Max_cycle;Signal;HPM_P1;HPM_P2
2024/04/02 00:00:22;;;;;;;8.07;4.90;;;;;;;;;;2029218;29;20036;-83
2024/04/02 00:01:41;;;;;;;7.28;4.28;;;;;;;;;;2027838;29;20020;-84
2024/04/02 00:03:00;;;;;;;5.40;4.75;;;;;;;;;;2026320;29;20024;-84
2024/04/02 00:04:19;;;;;;;5.88;4.35;;;;;;;;;;2035422;29;20066;-83
2024/04/02 00:05:39;;;;;;;6.30;4.05;;;;;;;;;;2030948;29;20028;-83
2024/04/02 00:06:58;;;;;;;4.70;4.22;;;;;;;;;;2027811;29;20053;-83
2024/04/02 00:08:17;;;;;;;12.70;4.50;;;;;;;;;;2026064;29;20901;-83
2024/04/02 00:09:36;;;;;;;5.15;4.30;;;;;;;;;;2035568;29;20031;-83
2024/04/02 00:11:05;;;;;;;5.05;3.88;;;;;;;;;;2029556;29;20035;-83
2024/04/02 00:12:25;;;;;;;6.72;4.32;;;;;;;;;;2043158;29;20032;-83
2024/04/02 00:13:45;;;;;;;7.53;4.55;;;;;;;;;;2031906;29;20040;-83
2024/04/02 00:15:05;;;;;;;8.88;4.57;;;;;;;;;;2040700;28;20035;-84
2024/04/02 00:16:24;;;;;;;7.25;4.00;;;;;;;;;;2040606;28;20067;-83
2024/04/02 00:17:46;;;;;;;5.28;3.92;;;;;;;;;;2031606;29;20036;-84
2024/04/02 00:19:05;;;;;;;4.50;4.10;;;;;;;;;;2033924;29;20524;-82
2024/04/02 00:20:24;;;;;;;6.88;4.32;;;;;;;;;;2029543;29;20044;-83
2024/04/02 00:21:43;;;;;;;5.03;3.97;;;;;;;;;;2033417;29;20028;-83
2024/04/02 00:23:03;;;;;;;4.65;4.25;;;;;;;;;;2029732;29;20063;-83
2024/04/02 00:24:22;;;;;;;5.07;3.75;;;;;;;;;;2035639;29;20485;-82
2024/04/02 00:25:43;;;;;;;5.70;3.65;;;;;;;;;;2048477;28;20460;-83
2024/04/02 00:27:02;;;;;;;4.70;3.75;;;;;;;;;;2031352;29;20065;-83
2024/04/02 00:28:21;;;;;;;4.70;3.90;;;;;;;;;;2034969;29;20032;-83
2024/04/02 00:29:43;;;;;;;4.38;4.07;;;;;;;;;;2029648;29;20092;-83
2024/04/02 00:31:03;;;;;;;;;;;;;;;;;;2035343;29;20055;-83
2024/04/02 00:32:22;;;;;;;5.05;4.03;;;;;;;;;;2038910;29;20499;-83
2024/04/02 00:33:41;;;;;;;5.05;4.38;;;;;;;;;;2036882;29;20047;-84
2024/04/02 00:35:01;;;;;;;6.30;4.53;;;;;;;;;;2035219;29;20039;-83
2024/04/02 00:36:21;;;;;;;4.35;3.88;;;;;;;;;;2028234;29;20024;-84
2024/04/02 00:37:40;;;;;;;4.53;4.20;;;;;;;;;;2026502;29;20028;-83
2024/04/02 00:39:01;;;;;;;5.30;4.00;;;;;;;;;;2026909;29;20040;-84
2024/04/02 00:40:20;;;;;;;4.53;4.13;;;;;;;;;;2025432;29;20028;-82
2024/04/02 00:41:39;;;;;;;4.43;4.03;;;;;;;;;;2040856;29;20122;-82
2024/04/02 00:43:05;;;;;;;4.97;3.85;;;;;;;;;;2040874;28;20027;-83
2024/04/02 00:44:24;;;;;;;7.38;4.30;;;;;;;;;;2029603;29;20032;-83
2024/04/02 00:45:43;;;;;;;5.65;4.20;;;;;;;;;;2041154;28;20100;-83
2024/04/02 00:47:03;;;;;;;9.80;4.43;;;;;;;;;;2033422;29;20035;-83
2024/04/02 00:48:22;;;;;;;5.47;3.50;;;;;;;;;;2035588;29;20109;-83
2024/04/02 00:49:41;;;;;;;9.43;4.28;;;;;;;;;;2043090;28;20558;-83
2024/04/02 00:51:00;;;;;;;4.50;3.90;;;;;;;;;;2032439;29;20040;-83
2024/04/02 00:52:19;;;;;;;5.28;3.97;;;;;;;;;;2029233;29;20506;-82
2024/04/02 00:53:38;;;;;;;5.88;3.63;;;;;;;;;;2026144;29;22963;-83
2024/04/02 00:54:57;;;;;;;8.25;3.85;;;;;;;;;;2025785;29;20036;-83
2024/04/02 00:56:17;;;;;;;4.28;3.58;;;;;;;;;;2041095;28;20487;-83
2024/04/02 00:57:36;;;;;;;4.55;3.80;;;;;;;;;;2030750;29;20158;-85
2024/04/02 00:58:55;;;;;;;4.45;4.03;;;;;;;;;;2043400;28;20518;-85
2024/04/02 01:00:15;;;;;;;5.15;3.72;;;;;;;;;;2031909;29;20115;-85
2024/04/02 01:01:34;;;;;;;8.75;4.15;;;;;;;;;;2036067;29;20035;-86
2024/04/02 01:02:53;;;;;;;4.55;3.85;;;;;;;;;;2044148;28;20055;-85
2024/04/02 01:04:11;;;;;;;4.05;3.60;;;;;;;;;;2033528;29;20040;-86
2024/04/02 01:05:35;;;;;;;8.23;4.53;;;;;;;;;;2040607;29;20103;-86
2024/04/02 01:06:54;;;;;;;5.90;4.35;;;;;;;;;;2030542;29;20127;-84
2024/04/02 01:08:13;;;;;;;8.70;3.92;;;;;;;;;;2026966;29;20039;-86
2024/04/02 01:09:33;;;;;;;7.07;4.20;;;;;;;;;;2035383;29;20035;-87
2024/04/02 01:10:54;;;;;;;5.32;3.80;;;;;;;;;;2029041;29;20032;-87
2024/04/02 01:12:13;;;;;;;5.85;3.83;;;;;;;;;;2034791;29;20579;-86
2024/04/02 01:13:34;;;;;;;5.35;4.18;;;;;;;;;;2027113;29;20040;-84
2024/04/02 01:14:53;;;;;;;5.53;4.10;;;;;;;;;;2026062;29;23515;-82
2024/04/02 01:16:14;;;;;;;4.68;3.92;;;;;;;;;;2029827;29;20036;-86
2024/04/02 01:17:33;;;;;;;3.80;3.47;;;;;;;;;;2041881;29;20122;-86
2024/04/02 01:18:52;;;;;;;5.78;3.88;;;;;;;;;;2033010;29;20115;-85
2024/04/02 01:20:11;;;;;;;7.22;4.20;;;;;;;;;;2025100;29;20046;-83
2024/04/02 01:21:30;;;;;;;4.65;3.80;;;;;;;;;;2041395;28;20035;-84
2024/04/02 01:22:50;;;;;;;5.72;3.90;;;;;;;;;;2031552;29;20028;-85
2024/04/02 01:24:09;;;;;;;4.60;4.10;;;;;;;;;;2026873;29;20084;-86
2024/04/02 01:25:28;;;;;;;5.97;4.38;;;;;;;;;;2042337;28;20043;-85
2024/04/02 01:26:48;;;;;;;4.82;3.75;;;;;;;;;;2040083;29;20413;-83
2024/04/02 01:28:07;;;;;;;5.18;4.03;;;;;;;;;;2029188;29;20028;-85
2024/04/02 01:29:26;;;;;;;4.35;3.90;;;;;;;;;;2025213;29;20048;-86
2024/04/02 01:30:45;;;;;;;5.00;3.92;;;;;;;;;;2025187;29;20089;-85
2024/04/02 01:32:07;;;;;;;4.45;3.78;;;;;;;;;;2023041;29;20573;-85
2024/04/02 01:33:26;;;;;;;4.25;3.78;;;;;;;;;;2027354;29;20085;-85
2024/04/02 01:34:45;;;;;;;4.60;4.10;;;;;;;;;;2023012;29;20073;-86
2024/04/02 01:36:03;;;;;;;5.47;3.95;;;;;;;;;;2018579;29;20044;-84
2024/04/02 01:37:23;;;;;;;4.05;3.75;;;;;;;;;;2025590;29;20449;-85
2024/04/02 01:38:41;;;;;;;5.22;3.95;;;;;;;;;;2036342;29;20021;-86
2024/04/02 01:40:01;;;;;;;4.30;3.60;;;;;;;;;;2024689;29;20053;-86
2024/04/02 01:41:20;;;;;;;3.67;3.38;;;;;;;;;;2021214;29;20029;-85
2024/04/02 01:42:39;;;;;;;6.57;4.22;;;;;;;;;;2033802;29;20682;-84
2024/04/02 01:43:58;;;;;;;8.45;3.60;;;;;;;;;;2032391;29;20505;-85
2024/04/02 01:45:17;;;;;;;5.03;4.63;;;;;;;;;;2022369;29;20040;-87
2024/04/02 01:46:36;;;;;;;5.20;4.00;;;;;;;;;;2020054;29;20064;-86
2024/04/02 01:47:55;;;;;;;5.15;3.88;;;;;;;;;;2019065;29;20479;-85
2024/04/02 01:49:13;;;;;;;4.82;4.05;;;;;;;;;;2026582;29;20111;-85
2024/04/02 01:50:32;;;;;;;5.70;4.57;;;;;;;;;;2036834;29;21648;-85
2024/04/02 01:51:51;;;;;;;7.22;4.38;;;;;;;;;;2025385;29;20780;-83
2024/04/02 01:53:10;;;;;;;5.70;4.57;;;;;;;;;;2034138;29;20048;-85
2024/04/02 01:54:29;;;;;;;7.32;4.68;;;;;;;;;;2022464;29;20498;-84
2024/04/02 01:55:48;;;;;;;5.55;4.63;;;;;;;;;;2018761;29;20086;-86
2024/04/02 01:57:07;;;;;;;8.32;4.45;;;;;;;;;;2018909;29;20104;-86
2024/04/02 01:58:26;;;;;;;9.65;4.47;;;;;;;;;;2026853;29;20513;-86
2024/04/02 01:59:45;;;;;;;6.45;4.63;;;;;;;;;;2022575;29;20115;-86
2024/04/02 02:01:04;;;;;;;4.65;4.25;;;;;;;;;;2026479;29;20028;-86
2024/04/02 02:02:23;;;;;;;5.03;4.63;;;;;;;;;;2033425;29;20040;-87
2024/04/02 02:03:42;;;;;;;6.32;4.50;;;;;;;;;;2025048;29;20119;-85
2024/04/02 02:05:01;;;;;;;6.50;4.50;;;;;;;;;;2017406;29;20036;-84
2024/04/02 02:06:20;;;;;;;8.60;4.95;;;;;;;;;;2018265;29;20032;-86
2024/04/02 02:07:40;;;;;;;5.47;4.10;;;;;;;;;;2019809;29;20104;-82
2024/04/02 02:08:59;;;;;;;5.93;4.03;;;;;;;;;;2022411;29;20028;-83
2024/04/02 02:10:18;;;;;;;5.70;4.40;;;;;;;;;;2017148;29;20036;-83
2024/04/02 02:11:37;;;;;;;6.43;4.18;;;;;;;;;;2025275;29;21067;-82
2024/04/02 02:12:56;;;;;;;4.40;3.97;;;;;;;;;;2022600;29;20041;-82
2024/04/02 02:14:16;;;;;;;5.18;4.07;;;;;;;;;;2020040;29;20112;-83
2024/04/02 02:15:35;;;;;;;8.18;4.43;;;;;;;;;;2019416;29;20681;-82
2024/04/02 02:16:54;;;;;;;6.07;3.97;;;;;;;;;;2037420;29;20039;-83
2024/04/02 02:18:12;;;;;;;7.32;4.68;;;;;;;;;;2024223;29;20500;-83
2024/04/02 02:19:31;;;;;;;4.90;4.07;;;;;;;;;;2017698;29;20107;-82
2024/04/02 02:20:50;;;;;;;5.47;4.47;;;;;;;;;;2027240;29;20040;-83
2024/04/02 02:22:09;;;;;;;6.22;4.28;;;;;;;;;;2037420;29;20068;-83
2024/04/02 02:23:28;;;;;;;4.50;4.13;;;;;;;;;;2032393;29;20021;-82
2024/04/02 02:24:47;;;;;;;7.63;4.32;;;;;;;;;;2037570;29;20545;-83
2024/04/02 02:26:06;;;;;;;6.85;4.15;;;;;;;;;;2023946;29;20033;-83
2024/04/02 02:27:25;;;;;;;5.72;4.10;;;;;;;;;;2032316;29;22102;-83
2024/04/02 02:28:44;;;;;;;10.27;4.30;;;;;;;;;;2025493;29;20025;-82
2024/04/02 02:30:04;;;;;;;4.18;3.70;;;;;;;;;;2027112;29;20057;-83
2024/04/02 02:31:24;;;;;;;7.68;4.05;;;;;;;;;;2021556;29;20108;-82
2024/04/02 02:32:43;;;;;;;4.10;3.70;;;;;;;;;;2023091;29;20243;-83
2024/04/02 02:34:03;;;;;;;4.90;3.70;;;;;;;;;;2017794;29;20021;-82
2024/04/02 02:35:24;;;;;;;4.30;3.80;;;;;;;;;;2018955;29;20028;-83
2024/04/02 02:36:43;;;;;;;4.85;4.00;;;;;;;;;;2019963;29;20517;-83
2024/04/02 02:38:02;;;;;;;4.63;3.97;;;;;;;;;;2034382;29;20031;-83
2024/04/02 02:39:22;;;;;;;6.90;3.95;;;;;;;;;;2023444;29;20413;-83
2024/04/02 02:40:41;;;;;;;5.95;4.20;;;;;;;;;;2019339;29;20028;-83
2024/04/02 02:42:00;;;;;;;7.90;4.03;;;;;;;;;;2019639;29;20040;-82
2024/04/02 02:43:19;;;;;;;8.02;3.80;;;;;;;;;;2021608;29;20061;-83
2024/04/02 02:44:38;;;;;;;4.63;3.35;;;;;;;;;;2027568;29;20016;-82
2024/04/02 02:45:57;;;;;;;5.55;3.72;;;;;;;;;;2022324;29;20612;-83
2024/04/02 02:47:18;;;;;;;3.67;3.42;;;;;;;;;;2020957;29;20037;-83
2024/04/02 02:48:36;;;;;;;9.15;3.55;;;;;;;;;;2029027;29;20044;-82
2024/04/02 02:49:55;;;;;;;6.78;3.63;;;;;;;;;;2038048;29;20072;-82
2024/04/02 02:51:17;;;;;;;13.85;4.43;;;;;;;;;;2022157;29;20033;-83
2024/04/02 02:52:36;;;;;;;8.90;3.65;;;;;;;;;;2019623;29;20036;-83
2024/04/02 02:53:55;;;;;;;11.90;4.10;;;;;;;;;;2016983;29;20529;-83
2024/04/02 02:55:19;;;;;;;4.50;3.75;;;;;;;;;;2018858;29;20112;-84
2024/04/02 02:56:40;;;;;;;4.47;3.83;;;;;;;;;;2023923;29;20029;-83
2024/04/02 02:57:59;;;;;;;9.75;3.60;;;;;;;;;;2021150;29;20056;-83
2024/04/02 02:59:18;;;;;;;12.73;4.20;;;;;;;;;;2033840;29;20428;-82
2024/04/02 03:00:38;;;;;;;8.35;3.60;;;;;;;;;;2024124;29;20036;-83
2024/04/02 03:01:58;;;;;;;4.13;3.70;;;;;;;;;;2035456;29;20441;-82
2024/04/02 03:03:17;;;;;;;5.43;3.88;;;;;;;;;;2031586;29;20119;-83
2024/04/02 03:04:35;;;;;;;6.60;4.00;;;;;;;;;;2022491;29;20044;-83
2024/04/02 03:05:55;;;;;;;8.93;4.03;;;;;;;;;;2022373;29;20048;-83
2024/04/02 03:07:14;;;;;;;6.28;3.83;;;;;;;;;;2018623;29;20040;-83
2024/04/02 03:08:34;;;;;;;4.30;3.55;;;;;;;;;;2025734;29;20028;-83
2024/04/02 03:09:54;;;;;;;4.65;3.92;;;;;;;;;;2031396;29;20036;-83
2024/04/02 03:11:13;;;;;;;6.80;4.28;;;;;;;;;;2036191;29;20047;-83
2024/04/02 03:12:31;;;;;;;7.85;3.85;;;;;;;;;;2032202;29;20625;-82
2024/04/02 03:13:50;;;;;;;10.48;4.20;;;;;;;;;;2021796;29;20421;-83
2024/04/02 03:15:09;;;;;;;5.60;4.10;;;;;;;;;;2019616;29;20045;-84
2024/04/02 03:16:28;;;;;;;5.97;4.20;;;;;;;;;;2017610;29;21125;-83
2024/04/02 03:17:47;;;;;;;4.30;3.90;;;;;;;;;;2027115;29;20033;-86
2024/04/02 03:19:09;;;;;;;6.13;4.10;;;;;;;;;;2021809;29;20033;-86
2024/04/02 03:20:28;;;;;;;6.18;4.00;;;;;;;;;;2018072;29;20760;-86
2024/04/02 03:21:47;;;;;;;6.50;3.47;;;;;;;;;;2020777;29;20111;-85
2024/04/02 03:23:06;;;;;;;7.60;4.40;;;;;;;;;;2022012;29;20036;-86
2024/04/02 03:24:25;;;;;;;5.07;3.58;;;;;;;;;;2022023;29;20028;-85
2024/04/02 03:25:53;;;;;;;7.97;4.10;;;;;;;;;;2017096;29;20601;-86
2024/04/02 03:27:12;;;;;;;4.30;3.60;;;;;;;;;;2021472;29;20036;-86
2024/04/02 03:28:32;;;;;;;8.43;4.00;;;;;;;;;;2019812;29;20111;-86
2024/04/02 03:29:52;;;;;;;6.07;3.97;;;;;;;;;;2041052;28;20051;-87
2024/04/02 03:31:11;;;;;;;10.13;3.90;;;;;;;;;;2034366;29;20625;-86
2024/04/02 03:32:30;;;;;;;19.40;3.88;;;;;;;;;;2027376;29;20521;-84
2024/04/02 03:33:50;;;;;;;5.38;3.80;;;;;;;;;;2026784;29;20045;-88
2024/04/02 03:35:09;;;;;;;5.60;4.10;;;;;;;;;;2026286;29;20032;-86
2024/04/02 03:36:28;;;;;;;6.32;3.35;;;;;;;;;;2035755;29;20038;-87
2024/04/02 03:37:47;;;;;;;9.55;3.60;;;;;;;;;;2045864;28;20144;-84
2024/04/02 03:39:07;;;;;;;6.40;3.90;;;;;;;;;;2034332;29;20048;-86
2024/04/02 03:40:27;;;;;;;4.43;4.03;;;;;;;;;;2033124;29;20020;-84
2024/04/02 03:41:46;;;;;;;8.32;4.00;;;;;;;;;;2038154;29;20040;-86
2024/04/02 03:43:04;;;;;;;5.65;3.47;;;;;;;;;;2044273;28;20031;-86
2024/04/02 03:44:23;;;;;;;8.05;4.13;;;;;;;;;;2031884;29;20036;-84
2024/04/02 03:45:46;;;;;;;6.53;3.63;;;;;;;;;;2024867;29;20063;-86
2024/04/02 03:47:05;;;;;;;;;;;;;;;;;;2025842;29;20052;-87
2024/04/02 03:48:24;;;;;;;8.85;3.42;;;;;;;;;;2026131;29;22588;-86
2024/04/02 03:49:44;;;;;;;8.73;3.83;;;;;;;;;;2030842;29;20032;-85
2024/04/02 03:51:03;;;;;;;5.60;3.85;;;;;;;;;;2041937;29;20032;-85
2024/04/02 03:52:22;;;;;;;5.90;3.85;;;;;;;;;;2032971;29;20107;-84
2024/04/02 03:53:41;;;;;;;9.25;3.83;;;;;;;;;;2030049;29;20155;-87
2024/04/02 03:55:01;;;;;;;8.45;3.50;;;;;;;;;;2030537;29;20054;-88
2024/04/02 03:56:20;;;;;;;5.75;3.17;;;;;;;;;;2036215;29;20028;-86
2024/04/02 03:57:39;;;;;;;6.13;3.60;;;;;;;;;;2031553;29;20036;-85
2024/04/02 03:58:57;;;;;;;5.97;3.55;;;;;;;;;;2030290;29;20024;-86
2024/04/02 04:00:17;;;;;;;4.07;3.00;;;;;;;;;;2038495;29;20020;-87
2024/04/02 04:01:36;;;;;;;7.90;3.53;;;;;;;;;;2040504;29;20023;-87
2024/04/02 04:02:56;;;;;;;4.75;3.63;;;;;;;;;;2031868;29;20068;-83
2024/04/02 04:04:15;;;;;;;4.20;3.53;;;;;;;;;;2026770;29;20119;-87
2024/04/02 04:05:34;;;;;;;4.03;3.60;;;;;;;;;;2028765;29;20036;-85
2024/04/02 04:06:56;;;;;;;3.67;3.28;;;;;;;;;;2031474;29;20040;-85
2024/04/02 04:08:16;;;;;;;5.78;3.70;;;;;;;;;;2034043;29;20031;-86
2024/04/02 04:09:35;;;;;;;3.72;3.33;;;;;;;;;;2030469;29;20028;-85
2024/04/02 04:10:54;;;;;;;8.05;4.18;;;;;;;;;;2034902;29;20036;-84
2024/04/02 04:12:13;;;;;;;5.45;3.28;;;;;;;;;;2039207;29;20493;-84
2024/04/02 04:13:32;;;;;;;5.28;3.25;;;;;;;;;;2045114;28;20125;-86
2024/04/02 04:14:51;;;;;;;7.60;3.25;;;;;;;;;;2032722;29;20043;-85
2024/04/02 04:16:11;;;;;;;6.70;3.72;;;;;;;;;;2037688;29;20019;-86
2024/04/02 04:17:30;;;;;;;6.53;3.08;;;;;;;;;;2039025;29;20028;-85
2024/04/02 04:18:49;;;;;;;3.65;3.17;;;;;;;;;;2038131;29;20044;-85
2024/04/02 04:20:08;;;;;;;5.88;3.35;;;;;;;;;;2036313;29;20036;-85
2024/04/02 04:21:27;;;;;;;8.52;3.05;;;;;;;;;;2045112;28;20035;-86
2024/04/02 04:22:50;;;;;;;12.38;3.25;;;;;;;;;;2033190;29;20116;-85
2024/04/02 04:24:09;;;;;;;3.20;2.90;;;;;;;;;;2042537;28;20028;-84
2024/04/02 04:25:28;;;;;;;7.70;2.63;;;;;;;;;;2040530;29;20110;-85
2024/04/02 04:26:46;;;;;;;6.65;3.58;;;;;;;;;;2030557;29;20043;-82
2024/04/02 04:28:05;;;;;;;4.55;2.85;;;;;;;;;;2030108;29;20143;-83
2024/04/02 04:29:24;;;;;;;4.97;3.30;;;;;;;;;;2020596;29;20057;-82
2024/04/02 04:30:43;;;;;;;4.93;3.10;;;;;;;;;;2018500;29;20529;-82
2024/04/02 04:32:03;;;;;;;4.90;3.20;;;;;;;;;;2024967;29;20047;-82
2024/04/02 04:33:22;;;;;;;6.35;3.17;;;;;;;;;;2036212;29;20032;-83
2024/04/02 04:34:44;;;;;;;4.10;3.40;;;;;;;;;;2023880;29;20033;-82
2024/04/02 04:36:03;;;;;;;5.47;3.42;;;;;;;;;;2016887;29;20036;-82
2024/04/02 04:37:22;;;;;;;5.53;2.92;;;;;;;;;;2019492;29;20032;-83
2024/04/02 04:38:41;;;;;;;9.50;3.30;;;;;;;;;;2032527;29;20028;-81
2024/04/02 04:40:01;;;;;;;4.78;3.47;;;;;;;;;;2024592;29;20049;-80
2024/04/02 04:41:20;;;;;;;3.75;3.15;;;;;;;;;;2024891;29;20505;-80
2024/04/02 04:42:39;;;;;;;13.50;3.78;;;;;;;;;;2022756;29;20355;-80
2024/04/02 04:43:58;;;;;;;5.55;2.72;;;;;;;;;;2021753;29;20021;-80
2024/04/02 04:45:17;;;;;;;5.25;3.10;;;;;;;;;;2021268;29;22685;-81
2024/04/02 04:46:36;;;;;;;12.27;3.15;;;;;;;;;;2021730;29;20025;-80
2024/04/02 04:47:56;;;;;;;4.32;3.25;;;;;;;;;;2024880;29;20111;-81
2024/04/02 04:49:14;;;;;;;4.47;3.53;;;;;;;;;;2036888;29;20031;-80
2024/04/02 04:50:37;;;;;;;4.72;3.70;;;;;;;;;;2024738;29;20424;-81
2024/04/02 04:51:56;;;;;;;3.83;2.92;;;;;;;;;;2034008;29;20027;-79
2024/04/02 04:53:15;;;;;;;6.93;3.35;;;;;;;;;;2023854;29;20033;-81
2024/04/02 04:54:35;;;;;;;5.40;2.70;;;;;;;;;;2018801;29;20115;-81
2024/04/02 04:56:01;;;;;;;5.55;3.17;;;;;;;;;;2034199;29;20039;-79
2024/04/02 04:57:20;;;;;;;5.15;2.85;;;;;;;;;;2016267;29;20037;-77
2024/04/02 04:58:40;;;;;;;4.75;3.35;;;;;;;;;;2029176;29;20027;-78
2024/04/02 04:59:59;;;;;;;3.33;2.97;;;;;;;;;;2022859;29;20037;-78
2024/04/02 05:01:18;;;;;;;3.97;3.25;;;;;;;;;;2018056;29;20032;-80
2024/04/02 05:02:38;;;;;;;4.88;2.60;;;;;;;;;;2021549;29;20913;-82
2024/04/02 05:03:57;;;;;;;9.30;3.30;;;;;;;;;;2020352;29;20040;-83
2024/04/02 05:05:16;;;;;;;4.32;3.20;;;;;;;;;;2024329;29;20060;-84
2024/04/02 05:06:38;;;;;;;4.90;2.65;;;;;;;;;;2035464;29;20040;-82
2024/04/02 05:08:13;;;;;;;6.70;2.95;;;;;;;;;;2031581;29;20525;-82
2024/04/02 05:09:32;;;;;;;5.18;3.30;;;;;;;;;;2036498;29;20059;-83
2024/04/02 05:10:51;;;;;;;6.10;3.13;;;;;;;;;;2024526;29;20115;-82
2024/04/02 05:12:10;;;;;;;6.35;2.97;;;;;;;;;;2027874;29;20497;-81
2024/04/02 05:13:32;;;;;;;6.35;3.00;;;;;;;;;;2039601;29;20043;-82
2024/04/02 05:14:51;;;;;;;4.28;2.92;;;;;;;;;;2029760;29;20037;-82
2024/04/02 05:16:10;;;;;;;6.53;2.95;;;;;;;;;;2021695;29;20036;-82
2024/04/02 05:17:31;;;;;;;6.80;2.45;;;;;;;;;;2017293;29;20510;-81
2024/04/02 05:18:50;;;;;;;5.43;3.20;;;;;;;;;;2017711;29;20085;-80
2024/04/02 05:20:09;;;;;;;5.25;2.90;;;;;;;;;;2033724;29;20027;-80
2024/04/02 05:21:29;;;;;;;5.30;3.03;;;;;;;;;;2022382;29;20200;-80
2024/04/02 05:22:48;;;;;;;5.50;3.33;;;;;;;;;;2017965;29;20032;-80
2024/04/02 05:24:07;;;;;;;4.90;3.10;;;;;;;;;;2022445;29;20029;-80
2024/04/02 05:25:26;;;;;;;5.65;3.20;;;;;;;;;;2017179;29;20521;-81
2024/04/02 05:26:45;;;;;;;5.65;2.92;;;;;;;;;;2017511;29;20208;-81
2024/04/02 05:28:04;;;;;;;10.00;3.28;;;;;;;;;;2015258;29;20033;-81
2024/04/02 05:29:23;;;;;;;6.35;2.80;;;;;;;;;;2030742;29;20450;-81
2024/04/02 05:30:42;;;;;;;2.30;2.10;;;;;;;;;;2042480;28;20084;-82
2024/04/02 05:32:01;;;;;;;8.32;3.22;;;;;;;;;;2032557;29;20044;-82
2024/04/02 05:33:20;;;;;;;11.75;3.97;;;;;;;;;;2033309;29;20989;-81
2024/04/02 05:34:40;;;;;;;4.57;2.95;;;;;;;;;;2036956;29;20031;-80
2024/04/02 05:36:00;;;;;;;5.25;2.80;;;;;;;;;;2028669;29;21909;-80
2024/04/02 05:37:19;;;;;;;4.28;2.80;;;;;;;;;;2041243;29;20406;-82
2024/04/02 05:38:38;;;;;;;13.02;3.38;;;;;;;;;;2031406;29;20036;-80
2024/04/02 05:39:58;;;;;;;6.05;2.67;;;;;;;;;;2040263;28;20431;-80
2024/04/02 05:41:18;;;;;;;7.65;3.38;;;;;;;;;;2029238;29;20039;-82
2024/04/02 05:42:37;;;;;;;4.93;3.10;;;;;;;;;;2025918;29;20092;-80
2024/04/02 05:43:56;;;;;;;7.50;2.95;;;;;;;;;;2026344;29;20028;-80
2024/04/02 05:45:15;;;;;;;7.03;3.72;;;;;;;;;;2033602;29;20496;-80
2024/04/02 05:46:34;;;;;;;8.27;3.42;;;;;;;;;;2043189;28;20044;-80
2024/04/02 05:47:53;;;;;;;3.72;3.08;;;;;;;;;;2038633;28;20083;-80
2024/04/02 05:49:13;;;;;;;5.82;2.50;;;;;;;;;;2043961;28;20524;-81
2024/04/02 05:50:33;;;;;;;8.35;2.85;;;;;;;;;;2030168;29;20032;-80
2024/04/02 05:51:52;;;;;;;16.10;2.72;;;;;;;;;;2040348;28;20090;-82
2024/04/02 05:53:11;;;;;;;5.50;2.92;;;;;;;;;;2031770;29;20121;-81
2024/04/02 05:54:30;;;;;;;11.30;3.00;;;;;;;;;;2040895;28;20404;-81
2024/04/02 05:55:49;;;;;;;5.15;2.78;;;;;;;;;;2030196;29;20107;-81
2024/04/02 05:57:11;;;;;;;4.10;2.67;;;;;;;;;;2027505;29;20068;-81
2024/04/02 05:58:29;;;;;;;3.58;2.42;;;;;;;;;;2024978;29;20037;-82
2024/04/02 05:59:51;;;;;;;3.70;2.60;;;;;;;;;;2024444;29;20151;-82
2024/04/02 06:01:10;;;;;;;5.70;2.67;;;;;;;;;;2026683;29;20036;-82
2024/04/02 06:02:32;;;;;;;2.83;2.47;;;;;;;;;;2028501;29;20020;-87
2024/04/02 06:05:59;;;;;;;6.65;2.80;;;;;;;;;;2036622;29;20039;-82
2024/04/02 06:07:24;;;;;;;4.78;2.78;;;;;;;;;;2028686;29;20036;-84
2024/04/02 06:08:46;;;;;;;6.45;2.90;;;;;;;;;;2025444;29;20029;-85
2024/04/02 06:21:22;;;;;;;;;;;;;;;;;;;;;
2024/04/02 06:23:32;;;;;;;;;;;;;;;;;;;;;
2024/04/02 06:25:34;;;;;;;;;;;;;;;;;;;;;
2024/04/02 06:30:04;;;;;;;;;;;;;;;;;;;;;
2024/04/02 06:33:08;;;;;;;4.43;2.72;;;;;;;;;;2015523;29;20049;-85
2024/04/02 06:34:29;;;;;;;6.65;2.63;;;;;;;;;;2013489;29;23016;-85
2024/04/02 06:36:09;;;;;;;5.32;2.22;;;;;;;;;;2006236;29;20120;-85
2024/04/02 06:37:33;;;;;;;9.68;3.05;;;;;;;;;;2005096;29;20029;-86
2024/04/02 06:38:55;;;;;;;4.25;2.60;;;;;;;;;;2006313;29;20025;-85
2024/04/02 06:40:24;;;;;;;4.00;2.40;;;;;;;;;;2010594;29;20105;-84
2024/04/02 06:41:59;;;;;;;;;;;;;;;;;;;;;
2024/04/02 06:43:39;;;;;;;6.82;2.50;;;;;;;;;;2013323;29;20029;-85
2024/04/02 06:45:44;;;;;;;4.60;2.40;;;;;;;;;;2013732;29;20037;-84
2024/04/02 06:47:03;;;;;;;7.15;2.80;;;;;;;;;;1997613;29;20085;-85
2024/04/02 06:48:24;;;;;;;6.57;2.95;;;;;;;;;;1987374;29;20042;-85
2024/04/02 06:49:44;;;;;;;2.28;1.98;;;;;;;;;;2003424;29;20042;-84
2024/04/02 06:51:04;;;;;;;6.10;2.42;;;;;;;;;;2001795;29;20056;-84
2024/04/02 06:52:23;;;;;;;5.25;2.10;;;;;;;;;;2013324;29;20044;-85
2024/04/02 06:53:43;;;;;;;2.88;2.25;;;;;;;;;;2019409;29;20041;-87
2024/04/02 06:55:01;;;;;;;6.37;2.77;;;;;;;;;;2033613;29;20036;-82
2024/04/02 06:56:20;;;;;;;4.53;2.30;;;;;;;;;;2025528;29;20081;-83
2024/04/02 06:57:40;;;;;;;8.25;2.75;;;;;;;;;;2021192;29;20510;-84
2024/04/02 06:58:58;;;;;;;7.90;2.53;;;;;;;;;;2018425;29;20513;-84
2024/04/02 07:00:17;;;;;;;7.53;2.60;;;;;;;;;;2033075;29;20492;-84
2024/04/02 07:01:36;;;;;;;4.00;2.70;;;;;;;;;;2027066;29;20029;-85
2024/04/02 07:02:57;;;;;;;4.07;2.20;;;;;;;;;;2034624;29;20601;-85
2024/04/02 07:04:16;;;;;;;20.02;2.75;;;;;;;;;;2024953;29;20079;-85
2024/04/02 07:05:35;;;;;;;6.65;2.50;;;;;;;;;;2019637;29;20041;-84
2024/04/02 07:06:55;;;;;;;2.17;1.92;;;;;;;;;;2023028;29;20032;-84
2024/04/02 07:08:14;;;;;;;2.85;2.10;;;;;;;;;;2020341;29;20028;-86
2024/04/02 07:09:33;;;;;;;2.53;2.30;;;;;;;;;;2022648;29;20036;-85
2024/04/02 07:11:01;;;;;;;3.45;2.22;;;;;;;;;;2027363;29;20040;-85
2024/04/02 07:12:20;;;;;;;2.58;2.03;;;;;;;;;;2038447;29;20031;-86
2024/04/02 07:13:39;;;;;;;10.15;2.03;;;;;;;;;;2026790;29;20028;-86
2024/04/02 07:14:58;;;;;;;5.68;1.92;;;;;;;;;;2018811;29;20044;-86
2024/04/02 07:16:16;;;;;;;2.75;1.60;;;;;;;;;;2019110;29;20710;-85
2024/04/02 07:17:35;;;;;;;2.65;2.45;;;;;;;;;;2027745;29;20103;-85
2024/04/02 07:18:54;;;;;;;4.80;1.90;;;;;;;;;;2030535;29;20119;-85
2024/04/02 07:20:13;;;;;;;3.72;2.60;;;;;;;;;;2022797;29;21078;-83
2024/04/02 07:21:32;;;;;;;5.85;2.55;;;;;;;;;;2028557;29;20065;-82
2024/04/02 07:22:52;;;;;;;3.17;1.92;;;;;;;;;;2036371;29;20024;-86
2024/04/02 07:24:11;;;;;;;5.38;1.95;;;;;;;;;;2025350;29;20032;-85
2024/04/02 07:25:30;;;;;;;2.25;2.10;;;;;;;;;;2033848;29;20036;-83
2024/04/02 07:26:49;;;;;;;4.43;2.65;;;;;;;;;;2025659;29;20040;-84
2024/04/02 07:28:08;;;;;;;4.25;2.33;;;;;;;;;;2017376;29;20041;-85
2024/04/02 07:29:27;;;;;;;3.92;2.20;;;;;;;;;;2019760;29;20033;-84
2024/04/02 07:30:45;;;;;;;5.00;2.17;;;;;;;;;;2044291;29;20038;-85
2024/04/02 07:32:05;;;;;;;10.48;2.22;;;;;;;;;;2042988;29;20028;-85
2024/04/02 07:33:24;;;;;;;4.43;2.13;;;;;;;;;;2030308;29;20417;-85
2024/04/02 07:34:43;;;;;;;1.98;1.55;;;;;;;;;;2030976;29;20100;-85
2024/04/02 07:36:06;;;;;;;6.30;2.10;;;;;;;;;;2041660;28;20157;-84
2024/04/02 07:37:28;;;;;;;3.55;2.25;;;;;;;;;;2034423;29;20024;-85
2024/04/02 07:38:53;;;;;;;7.85;1.98;;;;;;;;;;2042214;28;20083;-85
2024/04/02 07:40:14;;;;;;;4.93;2.30;;;;;;;;;;2028900;29;20028;-85
2024/04/02 07:41:33;;;;;;;2.05;1.80;;;;;;;;;;2027767;29;20040;-87
2024/04/02 07:42:52;;;;;;;7.15;1.95;;;;;;;;;;2034330;29;20115;-86
2024/04/02 07:44:10;;;;;;;6.35;2.15;;;;;;;;;;2044455;28;20204;-85
2024/04/02 07:45:29;;;;;;;5.15;1.90;;;;;;;;;;2034005;29;20035;-86
2024/04/02 07:46:48;;;;;;;5.70;2.40;;;;;;;;;;2026260;29;20122;-86
2024/04/02 07:48:07;;;;;;;3.25;1.80;;;;;;;;;;2031389;29;20080;-86
2024/04/02 07:49:26;;;;;;;2.58;1.85;;;;;;;;;;2025228;29;20032;-86
2024/04/02 07:50:45;;;;;;;2.47;2.22;;;;;;;;;;2027749;29;20047;-85
2024/04/02 07:52:04;;;;;;;5.43;2.17;;;;;;;;;;2034011;29;20032;-85
2024/04/02 07:53:26;;;;;;;3.35;1.85;;;;;;;;;;2045230;28;20150;-86
2024/04/02 07:54:45;;;;;;;4.93;2.30;;;;;;;;;;2030698;29;20187;-86
2024/04/02 07:56:04;;;;;;;7.20;2.40;;;;;;;;;;2029192;29;20044;-84
2024/04/02 07:57:23;;;;;;;3.03;1.75;;;;;;;;;;2034861;29;20027;-86
2024/04/02 07:58:42;;;;;;;3.97;1.95;;;;;;;;;;2037931;29;20036;-83
2024/04/02 08:00:01;;;;;;;4.60;2.15;;;;;;;;;;2028710;29;20406;-80
2024/04/02 08:01:20;;;;;;;2.92;2.30;;;;;;;;;;2030168;29;20038;-82
2024/04/02 08:02:39;;;;;;;4.70;2.03;;;;;;;;;;2028600;29;20036;-83
2024/04/02 08:03:58;;;;;;;2.75;2.10;;;;;;;;;;2025069;29;20095;-82
2024/04/02 08:05:17;;;;;;;2.60;1.90;;;;;;;;;;2024883;29;20024;-83
2024/04/02 08:06:35;;;;;;;5.45;2.30;;;;;;;;;;2042784;28;20035;-83
2024/04/02 08:07:54;;;;;;;4.28;1.85;;;;;;;;;;2032801;29;20069;-83
2024/04/02 08:09:13;;;;;;;2.90;2.38;;;;;;;;;;2027070;29;20036;-82
2024/04/02 08:10:32;;;;;;;9.77;2.85;;;;;;;;;;2025654;29;20040;-84
2024/04/02 08:11:51;;;;;;;3.67;2.15;;;;;;;;;;2043140;28;20031;-83
2024/04/02 08:13:10;;;;;;;1.95;1.48;;;;;;;;;;2032267;29;20024;-83
2024/04/02 08:14:31;;;;;;;2.88;2.10;;;;;;;;;;2028120;29;20505;-83
2024/04/02 08:15:50;;;;;;;4.82;1.90;;;;;;;;;;2033453;29;20108;-83
2024/04/02 08:17:09;;;;;;;2.80;2.00;;;;;;;;;;2041556;29;20044;-83
2024/04/02 08:18:28;;;;;;;3.72;2.15;;;;;;;;;;2048571;28;20401;-82
2024/04/02 08:19:52;;;;;;;6.43;1.85;;;;;;;;;;2037503;29;20048;-83
2024/04/02 08:21:24;;;;;;;4.32;2.00;;;;;;;;;;2031720;29;20032;-83